Time;durP1;ratioP1;P1;durP2;ratioP2;P2;SDS_P1;SDS_P2;PMS_P1;PMS_P2;Temp;Humidity;BMP_temperature;BMP_pressure;BME280_temperature;BME280_humidity;BME280_pressure;Samples;Min_cycle;Max_cycle;Signal;HPM_P1;HPM_P2
2023/07/12 00:01:00;;;;;;;2.38;1.27;;;22.20;66.30;;;;;;4983886;28;20031;-59
2023/07/12 00:03:26;;;;;;;4.15;1.40;;;22.10;66.10;;;;;;4987875;28;20057;-59
2023/07/12 00:05:52;;;;;;;3.58;1.63;;;22.10;66.00;;;;;;4990294;28;20109;-59
2023/07/12 00:08:26;;;;;;;4.80;1.60;;;22.10;66.50;;;;;;4982223;28;20061;-59
2023/07/12 00:10:55;;;;;;;6.85;1.38;;;22.10;66.80;;;;;;4985861;28;20037;-60
2023/07/12 00:13:21;;;;;;;3.63;1.42;;;22.10;66.50;;;;;;4987512;28;20076;-58
2023/07/12 00:15:48;;;;;;;3.85;1.60;;;22.00;66.70;;;;;;4995631;28;20104;-59
2023/07/12 00:18:23;;;;;;;3.30;1.42;;;22.00;66.90;;;;;;4988855;28;20469;-59
2023/07/12 00:20:51;;;;;;;4.93;1.63;;;22.00;67.20;;;;;;4988910;28;20027;-59
2023/07/12 00:23:18;;;;;;;2.03;1.17;;;21.90;66.60;;;;;;4988297;28;20084;-59
2023/07/12 00:25:45;;;;;;;5.38;1.65;;;21.90;67.50;;;;;;4989937;28;20049;-60
2023/07/12 00:28:26;;;;;;;4.15;1.50;;;21.90;67.10;;;;;;4990188;28;20597;-59
2023/07/12 00:30:54;;;;;;;3.60;1.15;;;21.90;69.00;;;;;;4992451;28;20527;-60
2023/07/12 00:33:20;;;;;;;4.20;1.75;;;21.90;67.30;;;;;;4988513;28;20029;-59
2023/07/12 00:35:47;;;;;;;5.43;1.70;;;21.80;67.50;;;;;;4986967;28;20037;-60
2023/07/12 00:38:19;;;;;;;6.65;1.63;;;21.80;67.70;;;;;;4987572;28;20026;-59
2023/07/12 00:40:56;;;;;;;5.18;1.45;;;21.70;68.60;;;;;;4987272;28;20030;-59
2023/07/12 00:43:27;;;;;;;2.65;1.50;;;21.70;68.60;;;;;;4988149;28;20485;-58
2023/07/12 00:45:55;;;;;;;5.00;1.88;;;21.70;69.20;;;;;;4986024;28;20405;-59
2023/07/12 00:48:20;;;;;;;4.15;1.80;;;21.80;68.80;;;;;;4985266;28;20037;-58
2023/07/12 00:56:11;;;;;;;5.50;1.73;;;21.80;68.60;;;;;;5044889;28;20033;-63
2023/07/12 00:58:42;;;;;;;5.05;2.50;;;21.80;69.10;;;;;;5040512;28;20029;-63
2023/07/12 01:01:10;;;;;;;4.95;1.85;;;21.90;69.50;;;;;;4992184;28;20032;-61
2023/07/12 01:03:38;;;;;;;4.78;2.17;;;21.90;69.30;;;;;;5045021;28;20029;-61
2023/07/12 01:06:06;;;;;;;4.95;1.77;;;21.90;69.10;;;;;;5041348;28;20040;-62
2023/07/12 01:08:32;;;;;;;3.80;1.45;;;21.90;69.30;;;;;;5047057;28;20060;-62
2023/07/12 01:11:02;;;;;;;4.63;1.70;;;22.00;69.30;;;;;;5045291;28;20037;-60
2023/07/12 01:13:30;;;;;;;6.72;1.92;;;22.00;69.40;;;;;;5048593;28;20025;-62
2023/07/12 01:15:58;;;;;;;5.75;1.50;;;22.00;69.20;;;;;;5044902;28;20039;-62
2023/07/12 01:18:24;;;;;;;5.15;2.13;;;22.00;69.40;;;;;;5044345;28;20028;-62
2023/07/12 01:21:14;;;;;;;3.20;1.58;;;22.00;68.80;;;;;;5043125;28;20036;-63
2023/07/12 01:23:41;;;;;;;5.18;1.92;;;22.00;69.10;;;;;;5042906;28;20450;-61
2023/07/12 01:26:24;;;;;;;8.02;2.92;;;22.00;68.40;;;;;;5042568;28;20167;-63
2023/07/12 01:28:54;;;;;;;4.93;2.67;;;22.00;70.00;;;;;;5042759;28;20044;-62
2023/07/12 01:31:20;;;;;;;2.75;1.90;;;21.90;69.10;;;;;;5045502;28;20021;-62
2023/07/12 01:33:46;;;;;;;4.40;2.00;;;21.90;68.80;;;;;;5038148;28;20041;-61
2023/07/12 01:36:12;;;;;;;6.90;2.00;;;21.90;69.00;;;;;;5045104;28;20024;-60
2023/07/12 01:38:38;;;;;;;4.85;1.70;;;21.90;69.00;;;;;;5046153;28;20108;-62
2023/07/12 01:41:04;;;;;;;5.60;1.70;;;21.90;69.30;;;;;;5039893;28;20029;-61
2023/07/12 01:43:30;;;;;;;4.57;1.52;;;21.90;69.40;;;;;;5044564;28;20028;-61
2023/07/12 01:45:57;;;;;;;5.03;1.60;;;21.90;69.50;;;;;;5043222;28;20041;-62
2023/07/12 01:48:23;;;;;;;5.20;1.80;;;21.90;69.60;;;;;;5042263;28;20533;-62
2023/07/12 01:50:49;;;;;;;2.47;1.50;;;21.90;69.70;;;;;;5039254;28;20037;-62
2023/07/12 01:53:14;;;;;;;4.95;1.60;;;21.90;69.60;;;;;;5042772;28;20027;-61
2023/07/12 01:55:42;;;;;;;5.47;1.63;;;21.90;69.80;;;;;;5037468;28;20041;-61
2023/07/12 01:58:08;;;;;;;4.25;1.63;;;22.00;70.10;;;;;;5036194;28;20451;-62
2023/07/12 02:00:34;;;;;;;5.25;1.52;;;22.00;69.70;;;;;;5036924;28;20040;-62
2023/07/12 02:02:59;;;;;;;3.65;1.60;;;22.00;69.60;;;;;;5039141;28;20021;-62
2023/07/12 02:05:25;;;;;;;4.82;1.80;;;22.00;69.60;;;;;;5037979;28;20126;-62
2023/07/12 02:07:52;;;;;;;4.85;1.60;;;22.00;69.80;;;;;;5040638;28;20025;-61
2023/07/12 02:10:20;;;;;;;3.45;1.70;;;22.00;69.90;;;;;;5045457;28;20017;-62
2023/07/12 02:12:46;;;;;;;4.35;1.85;;;22.00;70.00;;;;;;5046464;28;20025;-63
2023/07/12 02:15:13;;;;;;;3.83;1.83;;;22.10;69.70;;;;;;5034813;28;20040;-62
2023/07/12 02:17:39;;;;;;;3.88;1.70;;;22.10;69.60;;;;;;5045180;28;20107;-62
2023/07/12 02:20:08;;;;;;;3.25;2.38;;;22.10;69.50;;;;;;5038738;28;20061;-62
2023/07/12 02:22:35;;;;;;;7.38;3.08;;;22.10;69.70;;;;;;5042333;28;20032;-62
2023/07/12 02:25:01;;;;;;;9.57;2.90;;;22.10;69.70;;;;;;5040954;28;20098;-61
2023/07/12 02:27:27;;;;;;;5.60;2.22;;;22.00;69.40;;;;;;5044048;28;20531;-61
2023/07/12 02:29:53;;;;;;;9.75;2.40;;;22.00;69.50;;;;;;5044912;28;20033;-62
2023/07/12 02:32:20;;;;;;;5.15;2.00;;;22.00;69.50;;;;;;5045153;28;20048;-62
2023/07/12 02:34:47;;;;;;;4.95;2.28;;;22.00;69.70;;;;;;5033743;28;20033;-61
2023/07/12 02:37:13;;;;;;;7.68;2.28;;;21.90;69.70;;;;;;5040371;28;20033;-61
2023/07/12 02:39:39;;;;;;;5.72;2.47;;;21.90;69.90;;;;;;5041427;28;20542;-61
2023/07/12 02:42:05;;;;;;;5.28;2.45;;;21.90;70.20;;;;;;5041134;28;20117;-62
2023/07/12 02:44:31;;;;;;;5.03;2.30;;;21.90;70.30;;;;;;5045106;28;20470;-62
2023/07/12 02:46:56;;;;;;;10.70;2.38;;;21.90;70.30;;;;;;5043717;28;20045;-62
2023/07/12 02:49:22;;;;;;;4.90;1.90;;;21.90;70.20;;;;;;5045325;28;20377;-62
2023/07/12 02:51:48;;;;;;;6.45;1.60;;;21.90;70.20;;;;;;5043932;28;20499;-61
2023/07/12 02:54:14;;;;;;;7.47;1.85;;;21.90;70.20;;;;;;5044205;28;20056;-61
2023/07/12 02:56:40;;;;;;;5.15;2.25;;;21.90;70.30;;;;;;5043695;28;20414;-61
2023/07/12 02:59:05;;;;;;;6.03;2.05;;;21.90;70.10;;;;;;5039854;28;20021;-61
2023/07/12 03:01:31;;;;;;;4.72;1.92;;;21.90;70.30;;;;;;4987173;28;20025;-60
2023/07/12 03:03:57;;;;;;;2.35;1.70;;;21.80;70.20;;;;;;5041972;28;20017;-62
2023/07/12 03:06:23;;;;;;;4.97;1.98;;;21.80;70.20;;;;;;5034757;28;20075;-63
2023/07/12 03:08:49;;;;;;;5.22;1.85;;;21.80;70.30;;;;;;5044747;28;20032;-62
2023/07/12 03:11:15;;;;;;;6.25;2.20;;;21.80;70.40;;;;;;5018743;28;20025;-62
2023/07/12 03:13:40;;;;;;;3.42;2.00;;;21.80;70.40;;;;;;5036833;28;20033;-62
2023/07/12 03:16:07;;;;;;;8.15;2.55;;;21.80;70.50;;;;;;5041245;28;20051;-63
2023/07/12 03:18:34;;;;;;;4.60;2.28;;;21.80;70.50;;;;;;5039782;28;20060;-63
2023/07/12 03:21:02;;;;;;;6.63;1.90;;;21.80;70.50;;;;;;5044992;28;20021;-62
2023/07/12 03:23:33;;;;;;;6.57;2.28;;;21.70;70.60;;;;;;5043152;28;20071;-62
2023/07/12 03:25:58;;;;;;;5.53;2.20;;;21.70;70.80;;;;;;5036105;28;20105;-62
2023/07/12 03:28:25;;;;;;;3.75;2.20;;;21.70;70.40;;;;;;5041235;28;20025;-62
2023/07/12 03:31:04;;;;;;;6.47;2.50;;;21.70;70.50;;;;;;5044039;28;20387;-63
2023/07/12 03:33:30;;;;;;;6.03;2.00;;;21.70;71.30;;;;;;5043705;28;20021;-62
2023/07/12 03:35:57;;;;;;;9.20;2.47;;;21.70;70.70;;;;;;5045040;28;20036;-62
2023/07/12 03:38:26;;;;;;;4.13;2.08;;;21.70;70.80;;;;;;5044193;28;20418;-60
2023/07/12 03:40:53;;;;;;;8.57;1.95;;;21.60;70.90;;;;;;5044382;28;20388;-61
2023/07/12 03:43:19;;;;;;;6.25;2.13;;;21.70;70.90;;;;;;5042471;28;20624;-61
2023/07/12 03:45:45;;;;;;;3.60;2.10;;;21.60;70.80;;;;;;5034763;28;20124;-62
2023/07/12 03:48:11;;;;;;;6.20;2.22;;;21.70;70.90;;;;;;5042739;28;20360;-63
2023/07/12 03:50:46;;;;;;;5.00;2.22;;;21.60;70.90;;;;;;5044769;28;20021;-62
2023/07/12 03:53:12;;;;;;;7.22;2.30;;;21.60;71.50;;;;;;5030309;28;20536;-62
2023/07/12 03:55:46;;;;;;;8.13;2.15;;;21.60;70.80;;;;;;5045699;28;20550;-62
2023/07/12 03:58:15;;;;;;;6.00;2.35;;;21.60;71.80;;;;;;5044732;28;20407;-61
2023/07/12 04:00:42;;;;;;;4.60;2.30;;;21.60;71.20;;;;;;5038624;28;20082;-62
2023/07/12 04:03:08;;;;;;;9.38;2.45;;;21.60;71.20;;;;;;5042308;28;20095;-60
2023/07/12 04:05:38;;;;;;;6.32;2.35;;;21.60;71.20;;;;;;5045417;28;20483;-61
2023/07/12 04:08:04;;;;;;;5.40;2.50;;;21.60;71.80;;;;;;5046072;28;20032;-61
2023/07/12 04:10:30;;;;;;;10.25;2.17;;;21.60;71.40;;;;;;5044663;28;20056;-60
2023/07/12 04:12:56;;;;;;;6.78;2.42;;;21.60;71.40;;;;;;5047791;28;20037;-61
2023/07/12 04:15:22;;;;;;;5.88;2.42;;;21.60;71.40;;;;;;5025117;28;20051;-61
2023/07/12 04:17:48;;;;;;;6.10;2.45;;;21.60;71.40;;;;;;5047163;28;20033;-61
2023/07/12 04:20:13;;;;;;;8.07;2.40;;;21.60;71.40;;;;;;5047163;28;20044;-61
2023/07/12 04:22:39;;;;;;;8.07;2.70;;;21.60;71.40;;;;;;5044018;28;20029;-60
2023/07/12 04:25:08;;;;;;;4.95;2.17;;;21.70;71.60;;;;;;5019299;28;20045;-60
2023/07/12 04:27:37;;;;;;;7.28;2.70;;;21.70;71.60;;;;;;5040985;28;20479;-62
2023/07/12 04:30:04;;;;;;;4.65;2.70;;;21.70;71.70;;;;;;5042603;28;20106;-61
2023/07/12 04:32:29;;;;;;;7.10;2.72;;;21.70;71.70;;;;;;5036107;28;20025;-62
2023/07/12 04:34:55;;;;;;;6.45;2.75;;;21.80;71.90;;;;;;5044959;28;20035;-62
2023/07/12 04:37:22;;;;;;;4.60;2.05;;;21.80;72.00;;;;;;5044264;28;20446;-62
2023/07/12 04:39:48;;;;;;;8.27;2.30;;;21.80;72.20;;;;;;5044034;28;20064;-61
2023/07/12 04:42:13;;;;;;;9.27;2.33;;;21.90;72.10;;;;;;5048582;28;20056;-62
2023/07/12 04:44:39;;;;;;;4.70;1.90;;;22.00;73.10;;;;;;5047714;28;20104;-62
2023/07/12 04:47:08;;;;;;;4.53;2.10;;;22.00;72.30;;;;;;5044981;28;20194;-61
2023/07/12 04:49:33;;;;;;;5.85;2.30;;;22.10;72.40;;;;;;5044913;28;20118;-60
2023/07/12 04:51:59;;;;;;;6.95;2.75;;;22.10;71.90;;;;;;5047273;28;20067;-61
2023/07/12 04:54:25;;;;;;;8.05;2.92;;;22.20;71.70;;;;;;5047301;28;20048;-61
2023/07/12 04:56:51;;;;;;;5.45;2.65;;;22.20;71.60;;;;;;5048674;28;20036;-61
2023/07/12 04:59:18;;;;;;;4.18;2.42;;;22.20;71.60;;;;;;5042199;28;20475;-61
2023/07/12 05:01:44;;;;;;;5.05;2.70;;;22.20;71.60;;;;;;5044529;28;20029;-62
2023/07/12 05:04:10;;;;;;;3.65;2.40;;;22.30;71.60;;;;;;5044878;28;20120;-62
2023/07/12 05:06:35;;;;;;;4.68;2.40;;;22.30;71.50;;;;;;5046843;28;20112;-61
2023/07/12 05:09:01;;;;;;;13.70;2.70;;;22.40;71.30;;;;;;5046327;28;20391;-63
2023/07/12 05:11:27;;;;;;;4.88;3.05;;;22.40;71.40;;;;;;5041498;28;20386;-61
2023/07/12 05:13:52;;;;;;;4.15;2.92;;;22.40;71.60;;;;;;5042437;28;20025;-62
2023/07/12 05:16:18;;;;;;;7.75;3.03;;;22.40;71.50;;;;;;5044701;28;20017;-62
2023/07/12 05:18:44;;;;;;;8.18;3.40;;;22.50;71.50;;;;;;5040984;28;20127;-62
2023/07/12 05:21:09;;;;;;;11.98;3.10;;;22.50;71.40;;;;;;5048210;28;20068;-62
2023/07/12 05:23:36;;;;;;;13.43;3.85;;;22.50;71.40;;;;;;5041324;28;20021;-61
2023/07/12 05:26:03;;;;;;;8.18;3.00;;;22.50;71.40;;;;;;5044665;28;20033;-62
2023/07/12 05:28:28;;;;;;;14.90;3.50;;;22.60;71.40;;;;;;5044811;28;20062;-62
2023/07/12 05:30:54;;;;;;;8.15;3.08;;;22.60;71.50;;;;;;5047290;28;20068;-62
2023/07/12 05:33:20;;;;;;;8.10;3.25;;;22.60;71.50;;;;;;5043389;28;20103;-62
2023/07/12 05:35:48;;;;;;;8.65;3.17;;;22.60;71.40;;;;;;5043280;28;20024;-62
2023/07/12 05:38:14;;;;;;;8.13;3.20;;;22.60;71.60;;;;;;5045140;28;20079;-61
2023/07/12 05:40:40;;;;;;;8.25;3.20;;;22.60;71.30;;;;;;5045552;28;20037;-61
2023/07/12 05:43:06;;;;;;;9.43;3.78;;;22.60;71.30;;;;;;5044001;28;20036;-61
2023/07/12 05:45:31;;;;;;;8.45;3.50;;;22.60;71.30;;;;;;5044781;28;20045;-61
2023/07/12 05:47:57;;;;;;;8.68;3.47;;;22.70;71.50;;;;;;5022121;28;20053;-61
2023/07/12 05:50:23;;;;;;;7.82;3.40;;;22.60;71.60;;;;;;5044875;28;20033;-60
2023/07/12 05:52:49;;;;;;;6.93;2.88;;;22.70;71.70;;;;;;5041309;28;20025;-62
2023/07/12 05:55:19;;;;;;;9.48;3.25;;;22.70;71.70;;;;;;5039836;28;20049;-61
2023/07/12 05:57:46;;;;;;;10.45;3.30;;;22.70;71.70;;;;;;5039104;28;20030;-62
2023/07/12 06:00:13;;;;;;;10.00;2.63;;;22.80;71.70;;;;;;5022830;28;20021;-61
2023/07/12 06:02:38;;;;;;;7.35;2.95;;;22.80;71.70;;;;;;5036826;28;20021;-62
2023/07/12 06:05:07;;;;;;;5.25;2.63;;;22.90;71.60;;;;;;5035417;28;20387;-61
2023/07/12 06:07:34;;;;;;;9.75;2.42;;;22.90;72.10;;;;;;5039703;28;20518;-61
2023/07/12 06:09:59;;;;;;;7.18;2.53;;;22.90;71.60;;;;;;5038755;28;20082;-61
2023/07/12 06:12:26;;;;;;;4.43;2.20;;;23.00;71.70;;;;;;5044467;28;20476;-61
2023/07/12 06:14:52;;;;;;;8.38;2.45;;;23.00;71.50;;;;;;5045051;28;20115;-62
2023/07/12 06:17:17;;;;;;;6.80;2.55;;;23.10;71.30;;;;;;5044335;28;20104;-62
2023/07/12 06:19:44;;;;;;;8.82;2.63;;;23.20;71.30;;;;;;5043598;28;20036;-61
2023/07/12 06:22:10;;;;;;;6.55;2.55;;;23.20;70.90;;;;;;5039030;28;20029;-61
2023/07/12 06:24:36;;;;;;;7.72;2.85;;;23.30;70.80;;;;;;5045605;28;20036;-61
2023/07/12 06:27:01;;;;;;;6.53;2.63;;;23.30;70.00;;;;;;5038251;28;20040;-62
2023/07/12 06:29:28;;;;;;;6.55;2.13;;;23.30;69.80;;;;;;5046611;28;20382;-61
2023/07/12 06:31:54;;;;;;;3.25;2.20;;;23.40;70.30;;;;;;5045034;28;20501;-61
2023/07/12 06:34:21;;;;;;;5.88;2.33;;;23.40;70.50;;;;;;5045356;28;20112;-62
2023/07/12 06:36:46;;;;;;;5.03;2.67;;;23.50;70.60;;;;;;5041877;28;20029;-62
2023/07/12 06:39:12;;;;;;;4.82;2.58;;;23.60;70.40;;;;;;5042170;28;20025;-62
2023/07/12 06:41:37;;;;;;;8.18;2.63;;;23.70;70.50;;;;;;5044032;28;20054;-62
2023/07/12 06:44:03;;;;;;;6.68;2.75;;;23.70;70.40;;;;;;5041546;28;20454;-61
2023/07/12 06:46:29;;;;;;;4.35;2.20;;;23.80;69.80;;;;;;5042941;28;20556;-61
2023/07/12 06:48:55;;;;;;;11.75;3.13;;;23.80;69.60;;;;;;5041364;28;20029;-62
2023/07/12 06:51:21;;;;;;;8.80;2.70;;;23.80;69.20;;;;;;5043613;28;20502;-60
2023/07/12 06:53:47;;;;;;;7.82;2.70;;;23.90;68.90;;;;;;5044269;28;20035;-61
2023/07/12 06:56:13;;;;;;;10.13;2.88;;;24.00;69.30;;;;;;5043061;28;20117;-61
2023/07/12 06:58:38;;;;;;;4.93;2.67;;;24.00;69.50;;;;;;5044126;28;20426;-61
2023/07/12 07:01:09;;;;;;;6.72;2.60;;;24.00;69.00;;;;;;5044011;28;20108;-61
2023/07/12 07:03:35;;;;;;;6.28;2.22;;;24.00;69.20;;;;;;5045524;28;20053;-61
2023/07/12 07:06:00;;;;;;;4.53;2.22;;;24.10;69.90;;;;;;5045035;28;20067;-63
2023/07/12 07:08:27;;;;;;;8.27;2.97;;;24.20;69.40;;;;;;5038263;28;20037;-63
2023/07/12 07:10:53;;;;;;;5.03;2.30;;;24.20;69.40;;;;;;5038446;28;20021;-62
2023/07/12 07:13:23;;;;;;;8.00;2.47;;;24.30;69.50;;;;;;5046097;28;20029;-61
2023/07/12 07:15:50;;;;;;;8.48;2.45;;;24.40;69.40;;;;;;5040653;28;20032;-62
2023/07/12 07:18:16;;;;;;;10.00;2.83;;;24.50;69.20;;;;;;5045179;28;20031;-62
2023/07/12 07:20:42;;;;;;;8.40;2.80;;;24.50;68.90;;;;;;5041246;28;20576;-62
2023/07/12 07:23:10;;;;;;;7.80;2.75;;;24.60;68.80;;;;;;5048706;28;20028;-62
2023/07/12 07:25:36;;;;;;;8.65;2.90;;;24.70;69.00;;;;;;5045131;28;20118;-63
2023/07/12 07:28:02;;;;;;;8.00;3.28;;;24.80;68.20;;;;;;5041620;28;20574;-63
2023/07/12 07:30:28;;;;;;;4.90;2.60;;;24.90;67.90;;;;;;5050550;28;20112;-63
2023/07/12 07:32:54;;;;;;;7.60;2.50;;;25.00;67.50;;;;;;5045957;28;20030;-62
2023/07/12 07:35:21;;;;;;;7.45;2.70;;;25.00;67.30;;;;;;5045086;28;20025;-62
2023/07/12 07:37:48;;;;;;;6.00;2.50;;;25.00;67.30;;;;;;5043275;28;20025;-61
2023/07/12 07:40:14;;;;;;;4.88;2.60;;;25.00;66.90;;;;;;5047099;28;20024;-62
2023/07/12 07:42:40;;;;;;;8.40;2.63;;;25.10;67.00;;;;;;5026974;28;20037;-63
2023/07/12 07:45:06;;;;;;;6.55;3.45;;;25.10;67.50;;;;;;5049122;28;20513;-62
2023/07/12 07:47:32;;;;;;;7.57;2.72;;;25.30;67.90;;;;;;5027109;28;20120;-62
2023/07/12 07:49:58;;;;;;;4.45;2.65;;;25.40;67.50;;;;;;5048991;28;20108;-62
2023/07/12 07:52:24;;;;;;;7.85;2.67;;;25.50;67.10;;;;;;5048804;28;20017;-63
2023/07/12 07:54:50;;;;;;;25.35;2.80;;;25.60;66.70;;;;;;5043420;28;20060;-62
2023/07/12 07:57:15;;;;;;;8.57;3.05;;;25.70;66.60;;;;;;5049138;28;20013;-61
2023/07/12 07:59:41;;;;;;;9.18;3.13;;;25.80;66.20;;;;;;5046708;28;20339;-62
2023/07/12 08:02:10;;;;;;;7.97;2.92;;;25.90;66.10;;;;;;5046638;28;20025;-61
2023/07/12 08:04:37;;;;;;;6.95;2.65;;;25.90;66.20;;;;;;5036796;28;20021;-61
2023/07/12 08:07:04;;;;;;;5.50;2.67;;;26.00;66.20;;;;;;5045082;28;20036;-63
2023/07/12 08:09:29;;;;;;;10.93;3.03;;;26.10;65.80;;;;;;5046369;28;20055;-62
2023/07/12 08:11:55;;;;;;;4.60;2.60;;;26.20;65.50;;;;;;5048215;28;20033;-61
2023/07/12 08:14:21;;;;;;;6.05;2.50;;;26.30;65.30;;;;;;5048492;28;20032;-62
2023/07/12 08:16:48;;;;;;;6.28;2.78;;;26.40;64.60;;;;;;5046776;28;20057;-62
2023/07/12 08:19:15;;;;;;;7.00;2.83;;;26.50;64.80;;;;;;5044771;28;20061;-62
2023/07/12 08:21:41;;;;;;;7.47;3.22;;;26.60;65.00;;;;;;5040705;28;20032;-62
2023/07/12 08:24:06;;;;;;;4.47;2.80;;;26.70;64.80;;;;;;5039533;28;20030;-63
2023/07/12 08:26:32;;;;;;;5.82;2.80;;;26.90;65.30;;;;;;5041082;28;20067;-64
2023/07/12 08:28:58;;;;;;;10.98;3.08;;;27.00;64.40;;;;;;5045466;28;20029;-62
2023/07/12 08:31:23;;;;;;;11.80;3.10;;;27.10;64.00;;;;;;5043214;28;20029;-62
2023/07/12 08:33:49;;;;;;;7.80;2.78;;;27.30;64.10;;;;;;5046604;28;20029;-62
2023/07/12 08:36:16;;;;;;;8.65;3.53;;;27.50;63.80;;;;;;5043953;28;20029;-61
2023/07/12 08:38:42;;;;;;;7.07;3.15;;;27.70;63.90;;;;;;5044740;28;20021;-62
2023/07/12 08:41:20;;;;;;;8.23;2.83;;;27.90;63.50;;;;;;4994067;28;20163;-64
2023/07/12 08:43:46;;;;;;;5.80;2.75;;;28.10;61.90;;;;;;5045919;28;20029;-62
2023/07/12 08:46:23;;;;;;;8.85;3.05;;;28.20;61.80;;;;;;5047712;28;20110;-62
2023/07/12 08:48:54;;;;;;;9.82;3.17;;;28.30;60.40;;;;;;5041984;28;20031;-62
2023/07/12 08:51:30;;;;;;;9.82;3.10;;;28.30;60.30;;;;;;5044616;28;20013;-63
2023/07/12 08:53:57;;;;;;;5.45;3.28;;;28.30;60.30;;;;;;5031994;28;20025;-62
2023/07/12 08:56:24;;;;;;;8.90;3.85;;;28.20;59.40;;;;;;5038394;28;20059;-63
2023/07/12 08:58:52;;;;;;;8.45;3.55;;;28.10;59.40;;;;;;5043955;28;20032;-62
2023/07/12 09:01:44;;;;;;;7.63;2.97;;;28.00;59.60;;;;;;5045494;28;20506;-62
2023/07/12 09:04:23;;;;;;;17.02;2.85;;;27.80;59.30;;;;;;5047744;28;20032;-62
2023/07/12 09:07:00;;;;;;;5.63;2.53;;;27.80;57.90;;;;;;5044048;28;20068;-62
2023/07/12 09:09:27;;;;;;;4.88;2.58;;;27.70;57.60;;;;;;5047805;28;20044;-62
2023/07/12 09:11:54;;;;;;;4.63;2.42;;;27.70;58.60;;;;;;5040240;28;20041;-62
2023/07/12 09:14:22;;;;;;;5.93;2.30;;;27.70;59.10;;;;;;5046549;28;20104;-62
2023/07/12 09:16:50;;;;;;;4.13;1.85;;;27.80;58.60;;;;;;5044122;28;20440;-62
2023/07/12 09:19:20;;;;;;;2.45;1.75;;;28.00;57.60;;;;;;5048454;28;20024;-62
2023/07/12 09:21:58;;;;;;;6.65;1.75;;;28.20;56.70;;;;;;5044389;28;20067;-62
2023/07/12 09:24:28;;;;;;;5.50;1.83;;;28.40;55.10;;;;;;5047662;28;20060;-62
2023/07/12 09:27:15;;;;;;;2.45;1.50;;;28.60;53.20;;;;;;5045859;28;20510;-62
2023/07/12 09:29:41;;;;;;;3.80;1.50;;;28.80;51.50;;;;;;5026620;28;20041;-62
2023/07/12 09:32:18;;;;;;;2.35;1.42;;;28.90;51.20;;;;;;5041440;28;20025;-61
2023/07/12 09:34:47;;;;;;;3.78;1.52;;;29.00;48.80;;;;;;5042974;28;20090;-61
2023/07/12 09:37:18;;;;;;;2.50;1.20;;;29.00;49.60;;;;;;5044210;28;20054;-62
2023/07/12 09:39:57;;;;;;;3.25;1.50;;;29.10;49.00;;;;;;5040386;28;20399;-61
2023/07/12 09:42:24;;;;;;;2.40;1.50;;;29.20;48.30;;;;;;5043923;28;20025;-61
2023/07/12 09:44:50;;;;;;;2.80;1.52;;;29.20;48.90;;;;;;5035096;28;20044;-62
2023/07/12 09:47:34;;;;;;;2.40;1.35;;;29.30;48.20;;;;;;5017081;28;20064;-61
2023/07/12 09:50:11;;;;;;;;;;;29.40;47.30;;;;;;5046666;28;20422;-63
2023/07/12 09:52:56;;;;;;;3.55;1.52;;;29.40;49.70;;;;;;5038954;28;19909;-62
2023/07/12 09:55:40;;;;;;;3.03;1.65;;;29.40;48.00;;;;;;5035566;28;20485;-61
2023/07/12 09:58:12;;;;;;;4.53;1.70;;;29.50;47.00;;;;;;5034732;28;20021;-61
2023/07/12 10:01:05;;;;;;;3.78;1.65;;;29.50;48.10;;;;;;5043927;28;20074;-61
2023/07/12 10:03:41;;;;;;;5.70;1.80;;;29.50;47.90;;;;;;5044867;28;20021;-62
2023/07/12 10:06:32;;;;;;;4.93;1.77;;;29.50;46.30;;;;;;5036648;28;20036;-63
2023/07/12 10:09:05;;;;;;;2.05;1.40;;;29.60;47.40;;;;;;5047719;28;20056;-62
2023/07/12 10:11:43;;;;;;;4.22;1.58;;;29.70;47.30;;;;;;5038462;28;20371;-63
2023/07/12 10:14:13;;;;;;;5.15;1.50;;;29.80;47.40;;;;;;5040818;28;20420;-62
2023/07/12 10:16:45;;;;;;;3.88;1.92;;;29.90;47.70;;;;;;5042447;28;20053;-63
2023/07/12 10:19:22;;;;;;;3.22;1.63;;;30.00;47.40;;;;;;5044542;28;20024;-62
2023/07/12 10:21:53;;;;;;;7.28;2.13;;;30.10;47.20;;;;;;5045779;28;20036;-62
2023/07/12 10:24:21;;;;;;;4.10;1.85;;;30.20;46.40;;;;;;5045430;28;20044;-63
2023/07/12 10:26:47;;;;;;;5.03;1.88;;;30.30;46.40;;;;;;5043969;28;20531;-63
2023/07/12 10:29:21;;;;;;;3.55;1.80;;;30.30;46.40;;;;;;5041182;28;20130;-63
2023/07/12 10:31:51;;;;;;;3.42;1.73;;;30.40;45.90;;;;;;5046000;28;20103;-62
2023/07/12 10:34:30;;;;;;;5.68;1.80;;;30.40;46.30;;;;;;5037604;28;20025;-62
2023/07/12 10:36:57;;;;;;;2.25;1.70;;;30.50;46.70;;;;;;5045869;28;20034;-62
2023/07/12 10:39:27;;;;;;;3.47;2.30;;;30.70;46.60;;;;;;4966568;28;20082;-61
2023/07/12 10:42:05;;;;;;;6.43;2.10;;;30.70;44.70;;;;;;5047263;28;20108;-62
2023/07/12 10:44:36;;;;;;;7.47;2.15;;;30.80;44.60;;;;;;5034595;28;20029;-63
2023/07/12 10:47:07;;;;;;;6.75;2.25;;;30.90;44.80;;;;;;5039668;28;20087;-62
2023/07/12 10:49:46;;;;;;;3.75;1.98;;;30.90;44.10;;;;;;5040841;28;20117;-63
2023/07/12 10:52:17;;;;;;;3.72;2.20;;;31.00;44.10;;;;;;5044187;28;20136;-64
2023/07/12 10:55:03;;;;;;;3.63;2.28;;;31.00;44.30;;;;;;5038890;28;20049;-61
2023/07/12 10:57:38;;;;;;;3.75;2.00;;;31.00;45.50;;;;;;5045796;28;20072;-62
2023/07/12 11:00:21;;;;;;;6.78;2.45;;;31.10;45.20;;;;;;5033702;28;20196;-62
2023/07/12 11:02:58;;;;;;;6.37;2.23;;;31.10;42.90;;;;;;5042043;28;20116;-61
2023/07/12 11:05:54;;;;;;;5.00;2.15;;;31.20;44.20;;;;;;5040614;28;20275;-62
2023/07/12 11:08:32;;;;;;;4.60;2.40;;;31.30;43.10;;;;;;5043227;28;20032;-62
2023/07/12 11:11:09;;;;;;;3.63;2.40;;;31.40;44.10;;;;;;5035907;28;20053;-62
2023/07/12 11:13:44;;;;;;;6.60;3.10;;;31.40;43.30;;;;;;5040077;28;20029;-62
2023/07/12 11:16:18;;;;;;;6.80;2.67;;;31.50;43.80;;;;;;5020585;28;20036;-65
2023/07/12 11:18:54;;;;;;;4.65;2.50;;;31.50;43.10;;;;;;5040212;28;20081;-62
2023/07/12 11:21:46;;;;;;;5.53;2.72;;;31.50;43.10;;;;;;5039246;28;20029;-63
2023/07/12 11:24:27;;;;;;;6.85;2.83;;;31.60;42.40;;;;;;5039793;28;20486;-61
2023/07/12 11:26:58;;;;;;;6.82;2.47;;;31.80;41.70;;;;;;5024934;28;20036;-61
2023/07/12 11:29:30;;;;;;;6.10;3.03;;;31.80;42.90;;;;;;5044870;28;20029;-61
2023/07/12 11:32:07;;;;;;;4.75;2.67;;;31.90;41.80;;;;;;5042027;28;20029;-63
2023/07/12 11:34:39;;;;;;;6.93;2.90;;;31.90;42.50;;;;;;5044274;28;20037;-61
2023/07/12 11:37:30;;;;;;;6.53;2.85;;;32.00;43.30;;;;;;5023231;28;20151;-61
2023/07/12 11:39:56;;;;;;;4.72;2.50;;;31.90;42.40;;;;;;4963282;28;20048;-63
2023/07/12 11:42:28;;;;;;;5.60;3.22;;;32.00;42.40;;;;;;5041956;28;20038;-62
2023/07/12 11:45:04;;;;;;;4.28;2.90;;;32.00;41.50;;;;;;5027005;28;20029;-62
2023/07/12 11:47:31;;;;;;;10.02;2.85;;;32.00;41.00;;;;;;5042742;28;20036;-61
2023/07/12 11:49:59;;;;;;;5.78;2.85;;;32.00;41.90;;;;;;5040694;28;20059;-63
2023/07/12 11:52:26;;;;;;;6.18;2.63;;;32.00;41.10;;;;;;5039764;28;20118;-61
2023/07/12 11:54:53;;;;;;;6.30;3.00;;;32.00;41.90;;;;;;5044974;28;20549;-62
2023/07/12 11:57:20;;;;;;;8.23;2.95;;;32.10;42.10;;;;;;5040576;28;20490;-62
2023/07/12 11:59:48;;;;;;;6.80;2.85;;;32.20;42.40;;;;;;5035266;28;20048;-63
2023/07/12 12:02:19;;;;;;;7.50;3.03;;;32.20;41.80;;;;;;5041126;28;20037;-63
2023/07/12 12:04:49;;;;;;;7.22;2.70;;;32.20;41.70;;;;;;5034723;28;20385;-62
2023/07/12 12:07:32;;;;;;;4.93;2.42;;;32.20;40.80;;;;;;5036158;28;20041;-63
2023/07/12 12:09:59;;;;;;;3.53;2.40;;;32.10;41.10;;;;;;5043133;28;20046;-62
2023/07/12 12:12:30;;;;;;;5.70;3.00;;;32.00;41.50;;;;;;5044264;28;20124;-62
2023/07/12 12:14:56;;;;;;;5.65;2.70;;;31.90;41.80;;;;;;5036981;28;20442;-62
2023/07/12 12:17:35;;;;;;;6.57;3.10;;;31.80;41.70;;;;;;5042807;28;20521;-62
2023/07/12 12:20:16;;;;;;;6.88;3.38;;;31.70;41.20;;;;;;5042322;28;20033;-62
2023/07/12 12:22:44;;;;;;;9.02;3.17;;;31.70;41.90;;;;;;5046465;28;20028;-63
2023/07/12 12:25:21;;;;;;;6.60;2.90;;;31.80;41.90;;;;;;5044919;28;20084;-63
2023/07/12 12:27:48;;;;;;;6.03;3.22;;;31.90;41.30;;;;;;5044749;28;20067;-63
2023/07/12 12:30:55;;;;;;;10.38;2.80;;;32.00;41.30;;;;;;5039759;28;20022;-63
2023/07/12 12:33:26;;;;;;;4.53;2.85;;;32.10;41.00;;;;;;5037590;28;20040;-61
2023/07/12 12:36:01;;;;;;;6.60;2.80;;;32.10;40.40;;;;;;5044315;28;20387;-62
2023/07/12 12:38:36;;;;;;;7.70;3.55;;;32.10;39.40;;;;;;5048894;28;20098;-62
2023/07/12 12:41:16;;;;;;;5.45;3.33;;;32.10;41.30;;;;;;5030788;28;20033;-62
2023/07/12 12:43:59;;;;;;;5.82;3.22;;;32.10;39.30;;;;;;5047473;28;20013;-61
2023/07/12 12:46:25;;;;;;;6.75;3.17;;;32.00;39.00;;;;;;5047107;28;20047;-63
2023/07/12 12:48:54;;;;;;;4.68;3.00;;;31.90;38.90;;;;;;5039803;28;20029;-62
2023/07/12 12:51:19;;;;;;;4.32;2.70;;;31.80;39.00;;;;;;5043031;28;20036;-61
2023/07/12 12:53:45;;;;;;;6.22;2.88;;;31.70;39.60;;;;;;5042696;28;20163;-64
2023/07/12 12:56:13;;;;;;;5.20;3.03;;;31.70;40.00;;;;;;5048514;28;20434;-62
2023/07/12 12:58:39;;;;;;;5.13;3.03;;;31.80;39.70;;;;;;5042068;28;20029;-62
2023/07/12 13:01:04;;;;;;;5.60;3.28;;;31.90;39.40;;;;;;5041390;28;20577;-63